sensor_id;sensor_type;location;lat;lon;timestamp;P1;P2;P0
74880;PMS5003;63427;49.654;6.596;2022-12-18T01:29:20;48;42;
74880;PMS5003;63427;49.654;6.596;2022-12-18T01:31:46;56;47;
74880;PMS5003;63427;49.654;6.596;2022-12-18T01:34:11;41;39;
74880;PMS5003;63427;49.654;6.596;2022-12-18T01:36:39;37;34;
74880;PMS5003;63427;49.654;6.596;2022-12-18T01:39:03;41;40;
74880;PMS5003;63427;49.654;6.596;2022-12-18T01:41:28;37;35;
74880;PMS5003;63427;49.654;6.596;2022-12-18T01:43:53;47;44;
74880;PMS5003;63427;49.654;6.596;2022-12-18T01:46:19;53;46;
74880;PMS5003;63427;49.654;6.596;2022-12-18T01:48:44;50;43;
74880;PMS5003;63427;49.654;6.596;2022-12-18T01:51:09;47;41;
74880;PMS5003;63427;49.654;6.596;2022-12-18T01:53:35;55;47;
74880;PMS5003;63427;49.654;6.596;2022-12-18T01:56:00;55;52;
74880;PMS5003;63427;49.654;6.596;2022-12-18T01:58:27;45;44;
74880;PMS5003;63427;49.654;6.596;2022-12-18T02:00:51;53;47;
74880;PMS5003;63427;49.654;6.596;2022-12-18T02:03:17;53;47;
74880;PMS5003;63427;49.654;6.596;2022-12-18T02:05:44;47;43;
74880;PMS5003;63427;49.654;6.596;2022-12-18T02:08:09;53;46;
74880;PMS5003;63427;49.654;6.596;2022-12-18T02:10:35;41;35;
74880;PMS5003;63427;49.654;6.596;2022-12-18T02:13:00;47;40;
74880;PMS5003;63427;49.654;6.596;2022-12-18T02:15:24;46;41;
74880;PMS5003;63427;49.654;6.596;2022-12-18T02:17:50;50;46;
74880;PMS5003;63427;49.654;6.596;2022-12-18T02:20:16;46;39;
74880;PMS5003;63427;49.654;6.596;2022-12-18T02:22:41;44;40;
74880;PMS5003;63427;49.654;6.596;2022-12-18T02:25:11;45;40;
74880;PMS5003;63427;49.654;6.596;2022-12-18T02:27:30;43;39;
74880;PMS5003;63427;49.654;6.596;2022-12-18T02:29:55;48;46;
74880;PMS5003;63427;49.654;6.596;2022-12-18T02:32:22;52;46;
74880;PMS5003;63427;49.654;6.596;2022-12-18T02:34:46;57;51;
74880;PMS5003;63427;49.654;6.596;2022-12-18T02:37:13;49;45;
74880;PMS5003;63427;49.654;6.596;2022-12-18T02:39:38;49;43;
74880;PMS5003;63427;49.654;6.596;2022-12-18T02:42:03;39;33;
74880;PMS5003;63427;49.654;6.596;2022-12-18T02:44:28;49;42;
74880;PMS5003;63427;49.654;6.596;2022-12-18T02:46:54;42;34;
74880;PMS5003;63427;49.654;6.596;2022-12-18T02:49:24;42;39;
74880;PMS5003;63427;49.654;6.596;2022-12-18T02:51:47;40;40;
74880;PMS5003;63427;49.654;6.596;2022-12-18T02:54:10;42;37;
74880;PMS5003;63427;49.654;6.596;2022-12-18T02:56:37;42;39;
74880;PMS5003;63427;49.654;6.596;2022-12-18T02:59:02;42;39;
74880;PMS5003;63427;49.654;6.596;2022-12-18T03:01:28;45;43;
74880;PMS5003;63427;49.654;6.596;2022-12-18T03:03:54;46;43;
74880;PMS5003;63427;49.654;6.596;2022-12-18T03:06:20;45;40;
74880;PMS5003;63427;49.654;6.596;2022-12-18T03:08:44;46;45;
74880;PMS5003;63427;49.654;6.596;2022-12-18T03:11:10;55;48;
74880;PMS5003;63427;49.654;6.596;2022-12-18T03:13:36;52;46;
74880;PMS5003;63427;49.654;6.596;2022-12-18T03:16:00;57;51;
74880;PMS5003;63427;49.654;6.596;2022-12-18T03:18:27;55;52;
74880;PMS5003;63427;49.654;6.596;2022-12-18T03:20:51;48;42;
74880;PMS5003;63427;49.654;6.596;2022-12-18T03:23:17;45;43;
74880;PMS5003;63427;49.654;6.596;2022-12-18T03:25:42;46;42;
74880;PMS5003;63427;49.654;6.596;2022-12-18T03:28:08;43;40;
74880;PMS5003;63427;49.654;6.596;2022-12-18T03:30:34;45;43;
74880;PMS5003;63427;49.654;6.596;2022-12-18T03:33:01;48;40;
74880;PMS5003;63427;49.654;6.596;2022-12-18T03:35:28;45;42;
74880;PMS5003;63427;49.654;6.596;2022-12-18T03:37:50;49;45;
74880;PMS5003;63427;49.654;6.596;2022-12-18T03:40:16;43;36;
74880;PMS5003;63427;49.654;6.596;2022-12-18T03:42:43;49;48;
74880;PMS5003;63427;49.654;6.596;2022-12-18T03:45:07;45;40;
74880;PMS5003;63427;49.654;6.596;2022-12-18T03:47:32;42;37;
74880;PMS5003;63427;49.654;6.596;2022-12-18T03:49:57;52;46;
74880;PMS5003;63427;49.654;6.596;2022-12-18T03:52:23;42;39;
74880;PMS5003;63427;49.654;6.596;2022-12-18T03:54:47;52;45;
74880;PMS5003;63427;49.654;6.596;2022-12-18T03:57:13;48;43;
74880;PMS5003;63427;49.654;6.596;2022-12-18T03:59:38;39;37;
74880;PMS5003;63427;49.654;6.596;2022-12-18T04:02:03;49;39;
74880;PMS5003;63427;49.654;6.596;2022-12-18T04:04:28;42;37;
74880;PMS5003;63427;49.654;6.596;2022-12-18T04:06:53;52;46;
74880;PMS5003;63427;49.654;6.596;2022-12-18T04:09:19;43;40;
74880;PMS5003;63427;49.654;6.596;2022-12-18T04:11:45;48;43;
74880;PMS5003;63427;49.654;6.596;2022-12-18T04:14:10;40;34;
74880;PMS5003;63427;49.654;6.596;2022-12-18T04:16:36;49;45;
74880;PMS5003;63427;49.654;6.596;2022-12-18T04:19:01;42;36;
74880;PMS5003;63427;49.654;6.596;2022-12-18T04:21:26;49;45;
74880;PMS5003;63427;49.654;6.596;2022-12-18T04:23:52;46;40;
74880;PMS5003;63427;49.654;6.596;2022-12-18T04:26:18;51;49;
74880;PMS5003;63427;49.654;6.596;2022-12-18T04:28:43;46;43;
74880;PMS5003;63427;49.654;6.596;2022-12-18T04:31:14;54;48;
74880;PMS5003;63427;49.654;6.596;2022-12-18T04:33:34;55;49;
74880;PMS5003;63427;49.654;6.596;2022-12-18T04:36:00;54;48;
74880;PMS5003;63427;49.654;6.596;2022-12-18T04:38:26;55;51;
74880;PMS5003;63427;49.654;6.596;2022-12-18T04:40:51;52;46;
74880;PMS5003;63427;49.654;6.596;2022-12-18T04:43:17;51;46;
74880;PMS5003;63427;49.654;6.596;2022-12-18T04:45:42;55;48;
74880;PMS5003;63427;49.654;6.596;2022-12-18T04:48:08;52;48;
74880;PMS5003;63427;49.654;6.596;2022-12-18T04:50:34;51;42;
74880;PMS5003;63427;49.654;6.596;2022-12-18T04:52:58;49;46;
74880;PMS5003;63427;49.654;6.596;2022-12-18T04:55:24;51;48;
74880;PMS5003;63427;49.654;6.596;2022-12-18T04:57:49;60;51;
74880;PMS5003;63427;49.654;6.596;2022-12-18T05:02:40;45;42;
74880;PMS5003;63427;49.654;6.596;2022-12-18T05:05:06;46;42;
74880;PMS5003;63427;49.654;6.596;2022-12-18T05:07:30;49;45;
74880;PMS5003;63427;49.654;6.596;2022-12-18T05:09:55;52;46;
74880;PMS5003;63427;49.654;6.596;2022-12-18T05:12:21;45;39;
74880;PMS5003;63427;49.654;6.596;2022-12-18T05:14:46;39;36;
74880;PMS5003;63427;49.654;6.596;2022-12-18T05:17:11;46;42;
74880;PMS5003;63427;49.654;6.596;2022-12-18T05:19:36;52;48;
74880;PMS5003;63427;49.654;6.596;2022-12-18T05:22:01;52;49;
74880;PMS5003;63427;49.654;6.596;2022-12-18T05:24:26;54;49;
74880;PMS5003;63427;49.654;6.596;2022-12-18T05:26:52;49;43;
74880;PMS5003;63427;49.654;6.596;2022-12-18T05:29:17;52;46;
74880;PMS5003;63427;49.654;6.596;2022-12-18T05:31:43;42;39;
74880;PMS5003;63427;49.654;6.596;2022-12-18T05:34:07;49;43;
74880;PMS5003;63427;49.654;6.596;2022-12-18T05:36:34;45;40;
74880;PMS5003;63427;49.654;6.596;2022-12-18T05:38:59;64;57;
74880;PMS5003;63427;49.654;6.596;2022-12-18T05:41:24;54;49;
74880;PMS5003;63427;49.654;6.596;2022-12-18T05:43:50;48;43;
74880;PMS5003;63427;49.654;6.596;2022-12-18T05:48:40;64;52;
74880;PMS5003;63427;49.654;6.596;2022-12-18T05:51:17;60;49;
74880;PMS5003;63427;49.654;6.596;2022-12-18T05:53:32;52;48;
74880;PMS5003;63427;49.654;6.596;2022-12-18T05:55:59;57;49;
74880;PMS5003;63427;49.654;6.596;2022-12-18T05:58:23;55;46;
74880;PMS5003;63427;49.654;6.596;2022-12-18T06:00:48;64;55;
74880;PMS5003;63427;49.654;6.596;2022-12-18T06:03:14;48;45;
74880;PMS5003;63427;49.654;6.596;2022-12-18T06:05:40;61;55;
74880;PMS5003;63427;49.654;6.596;2022-12-18T06:08:05;58;52;
74880;PMS5003;63427;49.654;6.596;2022-12-18T06:10:30;60;48;
74880;PMS5003;63427;49.654;6.596;2022-12-18T06:12:56;51;46;
74880;PMS5003;63427;49.654;6.596;2022-12-18T06:15:21;54;52;
74880;PMS5003;63427;49.654;6.596;2022-12-18T06:17:47;48;43;
74880;PMS5003;63427;49.654;6.596;2022-12-18T06:20:13;58;49;
74880;PMS5003;63427;49.654;6.596;2022-12-18T06:22:38;54;49;
74880;PMS5003;63427;49.654;6.596;2022-12-18T06:25:03;48;46;
74880;PMS5003;63427;49.654;6.596;2022-12-18T06:27:28;46;42;
74880;PMS5003;63427;49.654;6.596;2022-12-18T06:29:53;48;45;
74880;PMS5003;63427;49.654;6.596;2022-12-18T06:32:19;51;45;
74880;PMS5003;63427;49.654;6.596;2022-12-18T06:34:44;45;40;
74880;PMS5003;63427;49.654;6.596;2022-12-18T06:37:09;48;43;
74880;PMS5003;63427;49.654;6.596;2022-12-18T06:39:35;58;55;
74880;PMS5003;63427;49.654;6.596;2022-12-18T06:42:01;48;45;
74880;PMS5003;63427;49.654;6.596;2022-12-18T06:44:26;48;43;
74880;PMS5003;63427;49.654;6.596;2022-12-18T06:46:52;49;45;
74880;PMS5003;63427;49.654;6.596;2022-12-18T06:49:17;51;43;
74880;PMS5003;63427;49.654;6.596;2022-12-18T06:51:42;58;52;
74880;PMS5003;63427;49.654;6.596;2022-12-18T06:54:08;52;49;
74880;PMS5003;63427;49.654;6.596;2022-12-18T06:56:34;52;48;
74880;PMS5003;63427;49.654;6.596;2022-12-18T06:58:59;55;49;
74880;PMS5003;63427;49.654;6.596;2022-12-18T07:01:24;45;42;
74880;PMS5003;63427;49.654;6.596;2022-12-18T07:03:51;54;48;
74880;PMS5003;63427;49.654;6.596;2022-12-18T07:06:16;63;58;
74880;PMS5003;63427;49.654;6.596;2022-12-18T07:08:40;63;58;
74880;PMS5003;63427;49.654;6.596;2022-12-18T07:11:05;60;57;
74880;PMS5003;63427;49.654;6.596;2022-12-18T07:13:31;70;64;
74880;PMS5003;63427;49.654;6.596;2022-12-18T07:18:22;75;66;
74880;PMS5003;63427;49.654;6.596;2022-12-18T07:20:47;63;60;
74880;PMS5003;63427;49.654;6.596;2022-12-18T07:23:12;67;58;
74880;PMS5003;63427;49.654;6.596;2022-12-18T07:25:38;49;48;
74880;PMS5003;63427;49.654;6.596;2022-12-18T07:28:04;46;43;
74880;PMS5003;63427;49.654;6.596;2022-12-18T07:30:29;52;48;
74880;PMS5003;63427;49.654;6.596;2022-12-18T07:32:54;63;55;
74880;PMS5003;63427;49.654;6.596;2022-12-18T07:35:20;49;45;
74880;PMS5003;63427;49.654;6.596;2022-12-18T07:37:45;61;55;
74880;PMS5003;63427;49.654;6.596;2022-12-18T07:40:11;46;40;
74880;PMS5003;63427;49.654;6.596;2022-12-18T07:42:37;84;79;
74880;PMS5003;63427;49.654;6.596;2022-12-18T07:45:03;69;63;
74880;PMS5003;63427;49.654;6.596;2022-12-18T07:47:37;58;51;
74880;PMS5003;63427;49.654;6.596;2022-12-18T07:49:53;55;51;
74880;PMS5003;63427;49.654;6.596;2022-12-18T07:52:18;61;55;
74880;PMS5003;63427;49.654;6.596;2022-12-18T07:54:44;67;57;
74880;PMS5003;63427;49.654;6.596;2022-12-18T07:57:09;63;57;
74880;PMS5003;63427;49.654;6.596;2022-12-18T07:59:35;61;55;
74880;PMS5003;63427;49.654;6.596;2022-12-18T08:02:01;54;48;
74880;PMS5003;63427;49.654;6.596;2022-12-18T08:04:26;60;55;
74880;PMS5003;63427;49.654;6.596;2022-12-18T08:06:51;58;51;
74880;PMS5003;63427;49.654;6.596;2022-12-18T08:09:17;52;48;
74880;PMS5003;63427;49.654;6.596;2022-12-18T08:11:42;48;46;
74880;PMS5003;63427;49.654;6.596;2022-12-18T08:14:08;51;49;
74880;PMS5003;63427;49.654;6.596;2022-12-18T08:16:32;67;63;
74880;PMS5003;63427;49.654;6.596;2022-12-18T08:18:58;58;54;
74880;PMS5003;63427;49.654;6.596;2022-12-18T08:21:25;73;66;
74880;PMS5003;63427;49.654;6.596;2022-12-18T08:23:50;66;61;
74880;PMS5003;63427;49.654;6.596;2022-12-18T08:26:15;81;70;
74880;PMS5003;63427;49.654;6.596;2022-12-18T08:28:40;79;73;
74880;PMS5003;63427;49.654;6.596;2022-12-18T08:31:06;81;78;
74880;PMS5003;63427;49.654;6.596;2022-12-18T08:33:31;76;69;
74880;PMS5003;63427;49.654;6.596;2022-12-18T08:35:57;55;55;
74880;PMS5003;63427;49.654;6.596;2022-12-18T08:38:21;77;67;
74880;PMS5003;63427;49.654;6.596;2022-12-18T08:40:46;76;73;
74880;PMS5003;63427;49.654;6.596;2022-12-18T08:43:12;78;69;
74880;PMS5003;63427;49.654;6.596;2022-12-18T08:45:48;71;66;
74880;PMS5003;63427;49.654;6.596;2022-12-18T08:48:03;81;76;
74880;PMS5003;63427;49.654;6.596;2022-12-18T08:50:28;73;69;
74880;PMS5003;63427;49.654;6.596;2022-12-18T08:52:54;83;71;
74880;PMS5003;63427;49.654;6.596;2022-12-18T08:55:19;67;64;
74880;PMS5003;63427;49.654;6.596;2022-12-18T08:57:49;88;72;
74880;PMS5003;63427;49.654;6.596;2022-12-18T09:00:10;76;74;
74880;PMS5003;63427;49.654;6.596;2022-12-18T09:02:35;80;79;
74880;PMS5003;63427;49.654;6.596;2022-12-18T09:05:00;84;76;
74880;PMS5003;63427;49.654;6.596;2022-12-18T09:07:27;85;76;
74880;PMS5003;63427;49.654;6.596;2022-12-18T09:09:52;94;85;
74880;PMS5003;63427;49.654;6.596;2022-12-18T09:12:17;100;92;
74880;PMS5003;63427;49.654;6.596;2022-12-18T09:14:43;79;78;
74880;PMS5003;63427;49.654;6.596;2022-12-18T09:17:09;92;84;
74880;PMS5003;63427;49.654;6.596;2022-12-18T09:19:34;97;90;
74880;PMS5003;63427;49.654;6.596;2022-12-18T09:22:00;79;69;
74880;PMS5003;63427;49.654;6.596;2022-12-18T09:24:25;61;56;
74880;PMS5003;63427;49.654;6.596;2022-12-18T09:26:52;74;64;
74880;PMS5003;63427;49.654;6.596;2022-12-18T09:29:16;65;60;
74880;PMS5003;63427;49.654;6.596;2022-12-18T09:31:41;67;63;
74880;PMS5003;63427;49.654;6.596;2022-12-18T09:34:07;70;60;
74880;PMS5003;63427;49.654;6.596;2022-12-18T09:36:33;54;52;
74880;PMS5003;63427;49.654;6.596;2022-12-18T09:38:58;65;58;
74880;PMS5003;63427;49.654;6.596;2022-12-18T09:41:30;66;59;
74880;PMS5003;63427;49.654;6.596;2022-12-18T09:43:50;67;63;
74880;PMS5003;63427;49.654;6.596;2022-12-18T09:46:17;63;56;
74880;PMS5003;63427;49.654;6.596;2022-12-18T09:48:42;65;60;
74880;PMS5003;63427;49.654;6.596;2022-12-18T09:51:10;59;54;
74880;PMS5003;63427;49.654;6.596;2022-12-18T09:53:33;63;59;
74880;PMS5003;63427;49.654;6.596;2022-12-18T09:55:57;79;75;
74880;PMS5003;63427;49.654;6.596;2022-12-18T09:58:24;72;66;
74880;PMS5003;63427;49.654;6.596;2022-12-18T10:00:47;65;60;
74880;PMS5003;63427;49.654;6.596;2022-12-18T10:03:13;65;60;
74880;PMS5003;63427;49.654;6.596;2022-12-18T10:05:40;56;52;
74880;PMS5003;63427;49.654;6.596;2022-12-18T10:08:05;52;47;
74880;PMS5003;63427;49.654;6.596;2022-12-18T10:10:32;61;59;
74880;PMS5003;63427;49.654;6.596;2022-12-18T10:12:57;68;63;
74880;PMS5003;63427;49.654;6.596;2022-12-18T10:15:22;91;86;
74880;PMS5003;63427;49.654;6.596;2022-12-18T10:17:48;83;76;
74880;PMS5003;63427;49.654;6.596;2022-12-18T10:20:13;83;77;
74880;PMS5003;63427;49.654;6.596;2022-12-18T10:22:42;66;63;
74880;PMS5003;63427;49.654;6.596;2022-12-18T10:25:04;68;65;
74880;PMS5003;63427;49.654;6.596;2022-12-18T10:27:28;80;72;
74880;PMS5003;63427;49.654;6.596;2022-12-18T10:29:53;68;66;
74880;PMS5003;63427;49.654;6.596;2022-12-18T10:32:20;74;70;
74880;PMS5003;63427;49.654;6.596;2022-12-18T10:34:45;78;72;
74880;PMS5003;63427;49.654;6.596;2022-12-18T10:37:11;78;73;
74880;PMS5003;63427;49.654;6.596;2022-12-18T10:39:35;93;86;
74880;PMS5003;63427;49.654;6.596;2022-12-18T10:44:26;99;94;
74880;PMS5003;63427;49.654;6.596;2022-12-18T10:46:53;92;87;
74880;PMS5003;63427;49.654;6.596;2022-12-18T10:49:18;75;72;
74880;PMS5003;63427;49.654;6.596;2022-12-18T10:51:42;63;62;
74880;PMS5003;63427;49.654;6.596;2022-12-18T10:54:13;82;80;
74880;PMS5003;63427;49.654;6.596;2022-12-18T10:56:34;89;82;
74880;PMS5003;63427;49.654;6.596;2022-12-18T10:59:00;68;65;
74880;PMS5003;63427;49.654;6.596;2022-12-18T11:01:24;82;75;
74880;PMS5003;63427;49.654;6.596;2022-12-18T11:06:16;82;73;
74880;PMS5003;63427;49.654;6.596;2022-12-18T11:08:42;73;67;
74880;PMS5003;63427;49.654;6.596;2022-12-18T11:11:07;66;62;
74880;PMS5003;63427;49.654;6.596;2022-12-18T11:13:32;73;71;
74880;PMS5003;63427;49.654;6.596;2022-12-18T11:15:58;78;74;
74880;PMS5003;63427;49.654;6.596;2022-12-18T11:18:25;65;60;
74880;PMS5003;63427;49.654;6.596;2022-12-18T11:20:50;65;62;
74880;PMS5003;63427;49.654;6.596;2022-12-18T11:23:14;71;67;
74880;PMS5003;63427;49.654;6.596;2022-12-18T11:25:40;113;103;
74880;PMS5003;63427;49.654;6.596;2022-12-18T11:28:08;80;78;
74880;PMS5003;63427;49.654;6.596;2022-12-18T11:30:31;64;60;
74880;PMS5003;63427;49.654;6.596;2022-12-18T11:32:58;81;78;
74880;PMS5003;63427;49.654;6.596;2022-12-18T11:35:32;104;101;
74880;PMS5003;63427;49.654;6.596;2022-12-18T11:37:48;75;67;
74880;PMS5003;63427;49.654;6.596;2022-12-18T11:40:13;78;73;
74880;PMS5003;63427;49.654;6.596;2022-12-18T11:42:38;88;84;
74880;PMS5003;63427;49.654;6.596;2022-12-18T11:45:04;83;77;
74880;PMS5003;63427;49.654;6.596;2022-12-18T11:47:29;84;77;
74880;PMS5003;63427;49.654;6.596;2022-12-18T11:49:54;85;76;
74880;PMS5003;63427;49.654;6.596;2022-12-18T11:52:20;86;79;
74880;PMS5003;63427;49.654;6.596;2022-12-18T11:54:44;82;79;
74880;PMS5003;63427;49.654;6.596;2022-12-18T11:57:12;70;67;
74880;PMS5003;63427;49.654;6.596;2022-12-18T11:59:38;77;74;
74880;PMS5003;63427;49.654;6.596;2022-12-18T12:02:03;86;81;
74880;PMS5003;63427;49.654;6.596;2022-12-18T12:04:31;90;83;
74880;PMS5003;63427;49.654;6.596;2022-12-18T12:06:54;77;73;
74880;PMS5003;63427;49.654;6.596;2022-12-18T12:09:19;82;76;
74880;PMS5003;63427;49.654;6.596;2022-12-18T12:11:46;81;76;
74880;PMS5003;63427;49.654;6.596;2022-12-18T12:14:13;73;71;
74880;PMS5003;63427;49.654;6.596;2022-12-18T12:16:35;76;70;
74880;PMS5003;63427;49.654;6.596;2022-12-18T12:19:03;157;146;
74880;PMS5003;63427;49.654;6.596;2022-12-18T12:21:25;81;79;
74880;PMS5003;63427;49.654;6.596;2022-12-18T12:23:52;77;73;
74880;PMS5003;63427;49.654;6.596;2022-12-18T12:26:16;82;79;
74880;PMS5003;63427;49.654;6.596;2022-12-18T12:28:46;85;80;
74880;PMS5003;63427;49.654;6.596;2022-12-18T12:31:07;101;94;
74880;PMS5003;63427;49.654;6.596;2022-12-18T12:33:34;86;81;
74880;PMS5003;63427;49.654;6.596;2022-12-18T12:35:58;84;81;
74880;PMS5003;63427;49.654;6.596;2022-12-18T12:38:23;76;71;
74880;PMS5003;63427;49.654;6.596;2022-12-18T12:40:48;79;77;
74880;PMS5003;63427;49.654;6.596;2022-12-18T12:43:20;75;73;
74880;PMS5003;63427;49.654;6.596;2022-12-18T12:45:40;78;72;
74880;PMS5003;63427;49.654;6.596;2022-12-18T12:48:05;76;74;
74880;PMS5003;63427;49.654;6.596;2022-12-18T12:50:30;98;96;
74880;PMS5003;63427;49.654;6.596;2022-12-18T12:52:55;80;73;
74880;PMS5003;63427;49.654;6.596;2022-12-18T12:55:21;63;57;
74880;PMS5003;63427;49.654;6.596;2022-12-18T12:57:48;74;69;
74880;PMS5003;63427;49.654;6.596;2022-12-18T13:00:13;66;60;
74880;PMS5003;63427;49.654;6.596;2022-12-18T13:02:39;64;59;
74880;PMS5003;63427;49.654;6.596;2022-12-18T13:05:03;75;69;
74880;PMS5003;63427;49.654;6.596;2022-12-18T13:07:29;73;71;
74880;PMS5003;63427;49.654;6.596;2022-12-18T13:12:20;74;71;
74880;PMS5003;63427;49.654;6.596;2022-12-18T13:14:45;95;90;
74880;PMS5003;63427;49.654;6.596;2022-12-18T13:17:16;80;79;
74880;PMS5003;63427;49.654;6.596;2022-12-18T13:19:36;83;77;
74880;PMS5003;63427;49.654;6.596;2022-12-18T13:22:01;93;90;
74880;PMS5003;63427;49.654;6.596;2022-12-18T13:24:28;74;72;
74880;PMS5003;63427;49.654;6.596;2022-12-18T13:27:04;75;73;
74880;PMS5003;63427;49.654;6.596;2022-12-18T13:34:12;75;73;
74880;PMS5003;63427;49.654;6.596;2022-12-18T13:36:35;76;73;
74880;PMS5003;63427;49.654;6.596;2022-12-18T13:39:10;83;77;
74880;PMS5003;63427;49.654;6.596;2022-12-18T13:41:26;78;71;
74880;PMS5003;63427;49.654;6.596;2022-12-18T13:43:51;79;73;
74880;PMS5003;63427;49.654;6.596;2022-12-18T13:46:19;68;64;
74880;PMS5003;63427;49.654;6.596;2022-12-18T13:51:07;68;64;
74880;PMS5003;63427;49.654;6.596;2022-12-18T13:53:34;68;67;
74880;PMS5003;63427;49.654;6.596;2022-12-18T13:55:59;106;94;
74880;PMS5003;63427;49.654;6.596;2022-12-18T13:58:25;95;90;
74880;PMS5003;63427;49.654;6.596;2022-12-18T14:00:55;89;81;
74880;PMS5003;63427;49.654;6.596;2022-12-18T14:03:17;73;69;
74880;PMS5003;63427;49.654;6.596;2022-12-18T14:05:41;70;66;
74880;PMS5003;63427;49.654;6.596;2022-12-18T14:08:08;77;68;
74880;PMS5003;63427;49.654;6.596;2022-12-18T14:10:32;71;69;
74880;PMS5003;63427;49.654;6.596;2022-12-18T14:12:59;70;63;
74880;PMS5003;63427;49.654;6.596;2022-12-18T14:15:26;86;79;
74880;PMS5003;63427;49.654;6.596;2022-12-18T14:17:49;76;69;
74880;PMS5003;63427;49.654;6.596;2022-12-18T14:20:14;78;73;
74880;PMS5003;63427;49.654;6.596;2022-12-18T14:22:39;73;70;
74880;PMS5003;63427;49.654;6.596;2022-12-18T14:25:10;77;71;
74880;PMS5003;63427;49.654;6.596;2022-12-18T14:27:30;77;72;
74880;PMS5003;63427;49.654;6.596;2022-12-18T14:29:55;66;63;
74880;PMS5003;63427;49.654;6.596;2022-12-18T14:32:20;76;72;
74880;PMS5003;63427;49.654;6.596;2022-12-18T14:34:47;85;82;
74880;PMS5003;63427;49.654;6.596;2022-12-18T14:37:15;76;70;
74880;PMS5003;63427;49.654;6.596;2022-12-18T14:42:03;111;97;
74880;PMS5003;63427;49.654;6.596;2022-12-18T14:46:54;96;88;
74880;PMS5003;63427;49.654;6.596;2022-12-18T14:49:20;96;92;
74880;PMS5003;63427;49.654;6.596;2022-12-18T14:51:47;84;75;
74880;PMS5003;63427;49.654;6.596;2022-12-18T14:54:14;73;70;
74880;PMS5003;63427;49.654;6.596;2022-12-18T14:56:36;75;69;
74880;PMS5003;63427;49.654;6.596;2022-12-18T14:59:02;80;76;
74880;PMS5003;63427;49.654;6.596;2022-12-18T15:01:28;81;78;
74880;PMS5003;63427;49.654;6.596;2022-12-18T15:03:53;76;75;
74880;PMS5003;63427;49.654;6.596;2022-12-18T15:06:23;84;75;
74880;PMS5003;63427;49.654;6.596;2022-12-18T15:08:44;99;86;
74880;PMS5003;63427;49.654;6.596;2022-12-18T15:13:35;95;90;
74880;PMS5003;63427;49.654;6.596;2022-12-18T15:16:00;90;82;
74880;PMS5003;63427;49.654;6.596;2022-12-18T15:18:27;84;78;
74880;PMS5003;63427;49.654;6.596;2022-12-18T15:20:52;89;83;
74880;PMS5003;63427;49.654;6.596;2022-12-18T15:23:17;70;65;
74880;PMS5003;63427;49.654;6.596;2022-12-18T15:25:42;77;69;
74880;PMS5003;63427;49.654;6.596;2022-12-18T15:28:16;76;75;
74880;PMS5003;63427;49.654;6.596;2022-12-18T15:30:33;74;72;
74880;PMS5003;63427;49.654;6.596;2022-12-18T15:35:24;98;94;
74880;PMS5003;63427;49.654;6.596;2022-12-18T15:37:50;85;83;
74880;PMS5003;63427;49.654;6.596;2022-12-18T15:40:15;82;78;
74880;PMS5003;63427;49.654;6.596;2022-12-18T15:42:44;88;85;
74880;PMS5003;63427;49.654;6.596;2022-12-18T15:45:07;101;92;
74880;PMS5003;63427;49.654;6.596;2022-12-18T15:47:37;100;97;
74880;PMS5003;63427;49.654;6.596;2022-12-18T15:49:57;82;76;
74880;PMS5003;63427;49.654;6.596;2022-12-18T15:52:22;88;83;
74880;PMS5003;63427;49.654;6.596;2022-12-18T15:54:48;78;70;
74880;PMS5003;63427;49.654;6.596;2022-12-18T15:57:13;86;79;
74880;PMS5003;63427;49.654;6.596;2022-12-18T15:59:39;80;74;
74880;PMS5003;63427;49.654;6.596;2022-12-18T16:02:07;70;68;
74880;PMS5003;63427;49.654;6.596;2022-12-18T16:04:29;77;72;
74880;PMS5003;63427;49.654;6.596;2022-12-18T16:07:00;82;76;
74880;PMS5003;63427;49.654;6.596;2022-12-18T16:09:20;86;82;
74880;PMS5003;63427;49.654;6.596;2022-12-18T16:11:45;88;85;
74880;PMS5003;63427;49.654;6.596;2022-12-18T16:14:12;85;77;
74880;PMS5003;63427;49.654;6.596;2022-12-18T16:16:37;73;69;
74880;PMS5003;63427;49.654;6.596;2022-12-18T16:19:04;78;71;
74880;PMS5003;63427;49.654;6.596;2022-12-18T16:21:29;75;70;
74880;PMS5003;63427;49.654;6.596;2022-12-18T16:23:56;80;75;
74880;PMS5003;63427;49.654;6.596;2022-12-18T16:26:22;78;73;
74880;PMS5003;63427;49.654;6.596;2022-12-18T16:28:46;85;81;
74880;PMS5003;63427;49.654;6.596;2022-12-18T16:31:11;80;74;
74880;PMS5003;63427;49.654;6.596;2022-12-18T16:33:36;65;63;
74880;PMS5003;63427;49.654;6.596;2022-12-18T16:36:02;85;79;
74880;PMS5003;63427;49.654;6.596;2022-12-18T16:38:28;74;67;
74880;PMS5003;63427;49.654;6.596;2022-12-18T16:40:53;82;77;
74880;PMS5003;63427;49.654;6.596;2022-12-18T16:43:19;76;70;
74880;PMS5003;63427;49.654;6.596;2022-12-18T16:45:44;84;81;
74880;PMS5003;63427;49.654;6.596;2022-12-18T16:48:10;79;74;
74880;PMS5003;63427;49.654;6.596;2022-12-18T16:50:36;88;77;
74880;PMS5003;63427;49.654;6.596;2022-12-18T16:53:02;78;67;
74880;PMS5003;63427;49.654;6.596;2022-12-18T16:55:27;77;71;
74880;PMS5003;63427;49.654;6.596;2022-12-18T16:57:52;73;71;
74880;PMS5003;63427;49.654;6.596;2022-12-18T17:00:17;93;84;
74880;PMS5003;63427;49.654;6.596;2022-12-18T17:02:48;93;89;
74880;PMS5003;63427;49.654;6.596;2022-12-18T17:05:08;98;93;
74880;PMS5003;63427;49.654;6.596;2022-12-18T17:07:34;103;91;
74880;PMS5003;63427;49.654;6.596;2022-12-18T17:09:59;102;94;
74880;PMS5003;63427;49.654;6.596;2022-12-18T17:12:24;92;90;
74880;PMS5003;63427;49.654;6.596;2022-12-18T17:14:50;92;84;
74880;PMS5003;63427;49.654;6.596;2022-12-18T17:17:15;80;73;
74880;PMS5003;63427;49.654;6.596;2022-12-18T17:19:40;126;119;
74880;PMS5003;63427;49.654;6.596;2022-12-18T17:22:05;100;95;
74880;PMS5003;63427;49.654;6.596;2022-12-18T17:24:31;98;95;
74880;PMS5003;63427;49.654;6.596;2022-12-18T17:26:56;100;88;
74880;PMS5003;63427;49.654;6.596;2022-12-18T17:29:31;87;82;
74880;PMS5003;63427;49.654;6.596;2022-12-18T17:31:49;82;76;
74880;PMS5003;63427;49.654;6.596;2022-12-18T17:34:12;78;71;
74880;PMS5003;63427;49.654;6.596;2022-12-18T17:36:38;81;76;
74880;PMS5003;63427;49.654;6.596;2022-12-18T17:39:04;85;84;
74880;PMS5003;63427;49.654;6.596;2022-12-18T17:41:29;88;81;
74880;PMS5003;63427;49.654;6.596;2022-12-18T17:43:55;85;78;
74880;PMS5003;63427;49.654;6.596;2022-12-18T17:46:22;102;98;
74880;PMS5003;63427;49.654;6.596;2022-12-18T17:48:45;160;147;
74880;PMS5003;63427;49.654;6.596;2022-12-18T17:51:11;127;117;
74880;PMS5003;63427;49.654;6.596;2022-12-18T17:53:37;110;105;
74880;PMS5003;63427;49.654;6.596;2022-12-18T17:56:02;132;120;
74880;PMS5003;63427;49.654;6.596;2022-12-18T17:58:27;106;98;
74880;PMS5003;63427;49.654;6.596;2022-12-18T18:00:53;103;96;
74880;PMS5003;63427;49.654;6.596;2022-12-18T18:03:18;117;112;